createdAt,value
2019-05-07T00:00:03.334Z,19.20
2019-05-07T00:02:52.544Z,18.55
2019-05-07T00:05:42.618Z,19.60
2019-05-07T00:08:22.956Z,19.00
2019-05-07T00:11:12.722Z,16.55
2019-05-07T00:14:03.027Z,16.07
2019-05-07T00:17:02.277Z,17.30
2019-05-07T00:19:52.442Z,18.00
2019-05-07T00:22:41.972Z,17.52
2019-05-07T00:25:29.912Z,15.95
2019-05-07T00:28:18.081Z,13.30
2019-05-07T00:31:06.272Z,17.12
2019-05-07T00:33:54.311Z,16.77
2019-05-07T00:40:02.692Z,15.30
2019-05-07T00:43:11.897Z,15.50
2019-05-07T00:46:19.041Z,17.02
2019-05-07T00:49:07.201Z,17.48
2019-05-07T00:51:55.336Z,15.55
2019-05-07T00:54:43.544Z,15.88
2019-05-07T00:57:32.366Z,15.78
2019-05-07T01:00:22.304Z,15.65
2019-05-07T01:03:12.898Z,17.23
2019-05-07T01:08:59.496Z,14.58
2019-05-07T01:11:47.688Z,17.48
2019-05-07T01:14:35.886Z,15.38
2019-05-07T01:17:24.020Z,17.02
2019-05-07T01:20:12.613Z,20.95
2019-05-07T01:25:56.783Z,19.02
2019-05-07T01:29:03.896Z,20.43
2019-05-07T01:32:12.688Z,18.70
2019-05-07T01:35:22.308Z,15.00
2019-05-07T01:38:12.221Z,15.60
2019-05-07T01:40:59.811Z,19.92
2019-05-07T01:43:47.795Z,14.90
2019-05-07T01:46:35.878Z,20.08
2019-05-07T01:52:17.576Z,16.30
2019-05-07T01:55:05.616Z,18.75
2019-05-07T01:57:53.643Z,17.15
2019-05-07T02:00:42.480Z,17.27
2019-05-07T02:03:52.675Z,18.95
2019-05-07T02:06:59.451Z,22.75
2019-05-07T02:09:44.889Z,18.65
2019-05-07T02:12:28.936Z,17.77
2019-05-07T02:15:17.006Z,15.98
2019-05-07T02:18:05.234Z,16.42
2019-05-07T02:20:53.389Z,21.68
2019-05-07T02:23:42.611Z,18.27
2019-05-07T02:26:32.198Z,17.52
2019-05-07T02:29:22.812Z,18.98
2019-05-07T02:32:13.235Z,18.98
2019-05-07T02:35:04.000Z,20.32
2019-05-07T02:38:09.649Z,18.98
2019-05-07T02:44:13.384Z,17.67
2019-05-07T02:47:19.613Z,16.20
2019-05-07T02:53:26.959Z,18.57
2019-05-07T02:56:15.302Z,21.57
2019-05-07T02:59:04.227Z,18.60
2019-05-07T03:01:53.881Z,20.95
2019-05-07T03:04:43.527Z,21.25
2019-05-07T03:07:25.368Z,16.90
2019-05-07T03:10:04.330Z,16.65
2019-05-07T03:12:53.652Z,19.07
2019-05-07T03:15:43.542Z,18.85
2019-05-07T03:18:33.502Z,16.30
2019-05-07T03:21:23.586Z,17.37
2019-05-07T03:27:15.599Z,18.12
2019-05-07T03:30:26.197Z,23.67
2019-05-07T03:36:16.901Z,22.15
2019-05-07T03:39:03.582Z,18.55
2019-05-07T03:41:53.090Z,16.93
2019-05-07T03:47:46.625Z,19.85
2019-05-07T03:50:34.849Z,16.42
2019-05-07T03:53:23.541Z,16.40
2019-05-07T03:56:13.291Z,16.93
2019-05-07T03:59:03.617Z,16.97
2019-05-07T04:01:53.793Z,17.70
2019-05-07T04:04:43.344Z,16.20
2019-05-07T04:07:23.595Z,21.12
2019-05-07T04:10:14.948Z,18.20
2019-05-07T04:13:04.548Z,17.27
2019-05-07T04:15:52.613Z,15.83
2019-05-07T04:18:43.829Z,21.05
2019-05-07T04:21:34.235Z,20.05
2019-05-07T04:28:03.794Z,40.73
2019-05-07T04:37:03.265Z,14.95
2019-05-07T04:40:09.716Z,14.45
2019-05-07T04:42:58.093Z,14.75
2019-05-07T04:45:46.464Z,16.30
2019-05-07T04:48:34.764Z,14.28
2019-05-07T04:54:37.235Z,12.65
2019-05-07T04:57:25.638Z,16.48
2019-05-07T05:00:15.812Z,15.43
2019-05-07T05:06:07.447Z,14.80
2019-05-07T05:08:46.769Z,16.00
2019-05-07T05:11:34.866Z,19.17
2019-05-07T05:14:23.099Z,17.02
2019-05-07T05:17:12.988Z,28.55
2019-05-07T05:19:43.903Z,14.18
2019-05-07T05:22:34.431Z,13.05
2019-05-07T05:25:28.582Z,15.18
2019-05-07T05:27:57.484Z,14.45
2019-05-07T05:30:36.500Z,17.85
2019-05-07T05:33:05.366Z,17.45
2019-05-07T05:35:34.403Z,14.60
2019-05-07T05:38:03.462Z,17.65
2019-05-07T05:40:32.355Z,15.25
2019-05-07T05:43:12.599Z,19.32
2019-05-07T05:45:42.789Z,19.57
2019-05-07T05:48:13.621Z,16.27
2019-05-07T05:50:49.432Z,16.23
2019-05-07T05:53:36.131Z,21.35
2019-05-07T05:56:11.457Z,17.48
2019-05-07T05:58:59.665Z,15.43
2019-05-07T06:01:46.612Z,14.87
2019-05-07T06:04:26.253Z,17.65
2019-05-07T06:07:11.237Z,15.58
2019-05-07T06:10:02.516Z,14.68
2019-05-07T06:12:43.167Z,25.20
2019-05-07T06:15:25.203Z,14.07
2019-05-07T06:18:17.975Z,17.82
2019-05-07T06:20:53.399Z,20.05
2019-05-07T06:23:33.012Z,19.75
2019-05-07T06:26:05.184Z,19.00
2019-05-07T06:28:34.302Z,28.23
2019-05-07T06:31:03.328Z,17.52
2019-05-07T06:33:32.499Z,21.12
2019-05-07T06:36:02.819Z,31.70
2019-05-07T06:38:36.219Z,21.00
2019-05-07T06:41:42.567Z,21.50
2019-05-07T06:44:16.326Z,28.80
2019-05-07T06:46:45.101Z,25.32
2019-05-07T06:49:13.884Z,21.48
2019-05-07T06:51:42.780Z,15.63
2019-05-07T06:54:12.978Z,17.95
2019-05-07T06:56:42.200Z,18.95
2019-05-07T06:59:32.563Z,23.20
2019-05-07T07:02:17.752Z,18.75
2019-05-07T07:04:52.009Z,19.35
2019-05-07T07:07:37.241Z,20.20
2019-05-07T07:10:24.716Z,12.40
2019-05-07T07:12:53.638Z,11.57
2019-05-07T07:15:23.262Z,12.78
2019-05-07T07:17:52.611Z,14.35
2019-05-07T07:20:22.632Z,16.12
2019-05-07T07:22:52.059Z,12.40
2019-05-07T07:25:22.947Z,12.93
2019-05-07T07:27:52.107Z,14.70
2019-05-07T07:30:34.032Z,18.92
2019-05-07T07:33:03.873Z,12.80
2019-05-07T07:35:32.854Z,19.62
2019-05-07T07:38:22.305Z,11.78
2019-05-07T07:40:57.727Z,21.60
2019-05-07T07:43:26.640Z,10.35
2019-05-07T07:45:55.428Z,13.43
2019-05-07T07:48:25.576Z,19.00
2019-05-07T07:50:55.054Z,13.08
2019-05-07T07:53:24.142Z,12.18
2019-05-07T07:56:12.109Z,10.85
2019-05-07T07:59:01.988Z,10.75
2019-05-07T08:01:42.157Z,16.50
2019-05-07T08:04:12.281Z,12.73
2019-05-07T08:06:41.998Z,13.38
2019-05-07T08:09:12.998Z,13.03
2019-05-07T08:11:42.543Z,14.25
2019-05-07T08:14:12.620Z,13.65
2019-05-07T08:16:43.009Z,9.43
2019-05-07T08:19:21.547Z,8.30
2019-05-07T08:21:42.662Z,11.33
2019-05-07T08:24:12.258Z,15.98
2019-05-07T08:26:42.837Z,17.48
2019-05-07T08:29:12.135Z,10.88
2019-05-07T08:32:02.784Z,9.98
2019-05-07T08:34:42.795Z,10.90
2019-05-07T08:37:12.114Z,8.03
2019-05-07T08:39:42.863Z,9.25
2019-05-07T08:42:12.234Z,9.03
2019-05-07T08:44:53.252Z,10.68
2019-05-07T08:47:34.853Z,9.03
2019-05-07T08:50:04.118Z,11.05
2019-05-07T08:52:32.941Z,8.35
2019-05-07T08:55:02.284Z,10.70
2019-05-07T08:57:31.843Z,8.93
2019-05-07T09:00:02.263Z,8.23
2019-05-07T09:02:32.586Z,8.98
2019-05-07T09:05:02.939Z,11.95
2019-05-07T09:07:32.278Z,9.45
2019-05-07T09:10:02.493Z,10.65
2019-05-07T09:12:31.990Z,13.22
2019-05-07T09:15:02.210Z,6.60
2019-05-07T09:17:31.892Z,8.00
2019-05-07T09:20:02.590Z,9.68
2019-05-07T09:22:32.340Z,6.90
2019-05-07T09:25:03.093Z,14.58
2019-05-07T09:27:42.428Z,8.45
2019-05-07T09:30:38.942Z,11.65
2019-05-07T09:33:15.802Z,9.95
2019-05-07T09:35:49.580Z,7.83
2019-05-07T09:38:18.471Z,6.67
2019-05-07T09:40:47.275Z,7.92
2019-05-07T09:43:16.177Z,7.58
2019-05-07T09:45:45.025Z,7.30
2019-05-07T09:48:13.890Z,7.90
2019-05-07T09:50:43.282Z,9.48
2019-05-07T09:53:12.802Z,8.15
2019-05-07T09:55:42.592Z,6.05
2019-05-07T09:58:12.508Z,7.50
2019-05-07T10:00:42.496Z,6.28
2019-05-07T10:03:12.661Z,6.67
2019-05-07T10:05:42.700Z,8.08
2019-05-07T10:08:12.906Z,15.00
2019-05-07T10:10:43.108Z,7.22
2019-05-07T10:13:32.999Z,7.85
2019-05-07T10:16:04.312Z,10.10
2019-05-07T10:18:32.860Z,7.65
2019-05-07T10:21:02.506Z,9.65
2019-05-07T10:23:31.661Z,6.60
2019-05-07T10:26:01.815Z,7.78
2019-05-07T10:28:32.034Z,4.17
2019-05-07T10:31:01.213Z,9.68
2019-05-07T10:33:31.987Z,5.83
2019-05-07T10:36:02.124Z,8.28
2019-05-07T10:38:31.269Z,7.85
2019-05-07T10:41:02.695Z,6.12
2019-05-07T10:43:32.714Z,7.55
2019-05-07T10:46:27.274Z,5.60
2019-05-07T10:49:24.678Z,41.83
2019-05-07T10:51:53.626Z,7.25
2019-05-07T10:54:22.546Z,10.35
2019-05-07T10:56:52.431Z,13.75
2019-05-07T10:59:22.517Z,7.83
2019-05-07T11:02:09.331Z,5.70
2019-05-07T11:04:42.628Z,9.65
2019-05-07T11:07:08.741Z,7.80
2019-05-07T11:09:37.610Z,6.35
2019-05-07T11:12:06.386Z,6.87
2019-05-07T11:14:35.253Z,7.95
2019-05-07T11:17:26.392Z,10.58
2019-05-07T11:19:55.288Z,8.25
2019-05-07T11:22:24.163Z,6.47
2019-05-07T11:24:53.164Z,7.42
2019-05-07T11:27:22.547Z,7.85
2019-05-07T11:29:51.598Z,5.97
2019-05-07T11:32:21.628Z,4.87
2019-05-07T11:34:52.810Z,4.05
2019-05-07T11:37:22.584Z,3.92
2019-05-07T11:39:52.351Z,5.70
2019-05-07T11:42:42.641Z,5.65
2019-05-07T11:45:23.369Z,7.95
2019-05-07T11:47:52.269Z,6.40
2019-05-07T11:50:42.329Z,9.33
2019-05-07T11:53:11.987Z,7.87
2019-05-07T11:55:42.049Z,5.58
2019-05-07T11:58:12.801Z,34.30
2019-05-07T12:00:51.102Z,26.87
2019-05-07T12:03:21.993Z,13.95
2019-05-07T12:05:52.527Z,5.78
2019-05-07T12:08:23.725Z,38.40
2019-05-07T12:10:51.978Z,5.42
2019-05-07T12:13:21.763Z,7.72
2019-05-07T12:15:52.193Z,10.10
2019-05-07T12:18:22.724Z,6.22
2019-05-07T12:20:53.890Z,8.35
2019-05-07T12:23:22.731Z,7.95
2019-05-07T12:25:52.851Z,6.03
2019-05-07T12:28:22.544Z,11.22
2019-05-07T12:31:12.154Z,9.20
2019-05-07T12:33:52.042Z,9.10
2019-05-07T12:36:22.796Z,7.00
2019-05-07T12:38:53.281Z,6.62
2019-05-07T12:41:34.839Z,6.67
2019-05-07T12:44:07.284Z,8.40
2019-05-07T12:46:36.565Z,8.63
2019-05-07T12:49:05.902Z,6.67
2019-05-07T12:51:42.709Z,7.55
2019-05-07T12:54:43.126Z,7.55
2019-05-07T12:57:12.021Z,7.40
2019-05-07T12:59:42.618Z,7.10
2019-05-07T13:02:37.347Z,10.98
2019-05-07T13:04:53.926Z,9.03
2019-05-07T13:07:41.807Z,6.50
2019-05-07T13:10:11.113Z,7.90
2019-05-07T13:12:41.912Z,8.98
2019-05-07T13:15:21.957Z,8.95
2019-05-07T13:17:41.701Z,10.18
2019-05-07T13:20:12.152Z,8.58
2019-05-07T13:22:42.689Z,8.88
2019-05-07T13:25:11.880Z,8.28
2019-05-07T13:27:42.714Z,12.23
2019-05-07T13:30:12.514Z,7.67
2019-05-07T13:32:41.925Z,8.23
2019-05-07T13:35:12.166Z,9.35
2019-05-07T13:37:44.765Z,8.30
2019-05-07T13:40:34.203Z,10.00
2019-05-07T13:43:08.499Z,13.72
2019-05-07T13:45:44.887Z,11.90
2019-05-07T13:48:22.572Z,11.48
2019-05-07T13:50:51.658Z,11.03
2019-05-07T13:53:22.690Z,8.85
2019-05-07T13:55:51.253Z,9.35
2019-05-07T13:58:20.285Z,11.57
2019-05-07T14:01:05.639Z,7.97
2019-05-07T14:03:34.608Z,8.20
2019-05-07T14:06:04.565Z,9.25
2019-05-07T14:08:35.579Z,11.60
2019-05-07T14:11:04.467Z,10.58
2019-05-07T14:13:33.413Z,10.93
2019-05-07T14:16:09.259Z,9.50
2019-05-07T14:18:38.874Z,11.03
2019-05-07T14:21:07.791Z,13.32
2019-05-07T14:23:36.556Z,9.48
2019-05-07T14:26:05.390Z,11.97
2019-05-07T14:28:34.234Z,10.58
2019-05-07T14:31:03.044Z,9.98
2019-05-07T14:33:44.324Z,11.75
2019-05-07T14:36:16.850Z,10.45
2019-05-07T14:38:47.870Z,12.30
2019-05-07T14:41:16.639Z,31.85
2019-05-07T14:43:53.705Z,23.80
2019-05-07T14:46:22.459Z,11.45
2019-05-07T14:48:52.118Z,14.28
2019-05-07T14:51:22.037Z,12.90
2019-05-07T14:53:51.002Z,14.45
2019-05-07T14:56:19.791Z,19.45
2019-05-07T14:58:48.518Z,16.25
2019-05-07T15:01:17.297Z,16.20
2019-05-07T15:03:46.120Z,17.25
2019-05-07T15:06:14.862Z,19.62
2019-05-07T15:08:43.800Z,21.25
2019-05-07T15:11:12.892Z,21.37
2019-05-07T15:13:42.755Z,17.23
2019-05-07T15:16:11.948Z,18.02
2019-05-07T15:18:55.382Z,15.40
2019-05-07T15:21:24.177Z,17.65
2019-05-07T15:23:53.648Z,16.48
2019-05-07T15:26:22.473Z,16.65
2019-05-07T15:28:56.626Z,15.93
2019-05-07T15:31:43.095Z,15.50
2019-05-07T15:34:12.386Z,13.40
2019-05-07T15:36:42.349Z,13.15
2019-05-07T15:39:13.301Z,12.30
2019-05-07T15:41:42.473Z,14.87
2019-05-07T15:44:11.948Z,12.78
2019-05-07T15:46:42.820Z,12.98
2019-05-07T15:49:12.503Z,11.12
2019-05-07T15:51:41.996Z,12.47
2019-05-07T15:54:12.795Z,13.22
2019-05-07T15:56:41.657Z,11.60
2019-05-07T15:59:13.140Z,11.43
2019-05-07T16:01:42.178Z,12.80
2019-05-07T16:04:21.700Z,14.45
2019-05-07T16:06:42.505Z,13.85
2019-05-07T16:09:12.936Z,11.08
2019-05-07T16:11:43.072Z,11.90
2019-05-07T16:14:26.394Z,13.75
2019-05-07T16:16:55.629Z,10.90
2019-05-07T16:19:27.583Z,11.18
2019-05-07T16:21:58.466Z,11.05
2019-05-07T16:24:27.376Z,12.40
2019-05-07T16:26:56.086Z,13.53
2019-05-07T16:29:25.242Z,12.13
2019-05-07T16:31:53.950Z,11.08
2019-05-07T16:34:24.647Z,13.80
2019-05-07T16:36:53.278Z,11.22
2019-05-07T16:39:25.130Z,13.03
2019-05-07T16:41:53.849Z,11.93
2019-05-07T16:44:22.656Z,11.08
2019-05-07T16:46:53.434Z,11.88
2019-05-07T16:49:22.411Z,11.68
2019-05-07T16:51:54.337Z,12.82
2019-05-07T16:54:23.055Z,11.08
2019-05-07T16:57:12.035Z,19.98
2019-05-07T16:59:42.576Z,14.45
2019-05-07T17:02:16.462Z,12.07
2019-05-07T17:05:05.298Z,12.15
2019-05-07T17:07:36.094Z,12.20
2019-05-07T17:10:05.463Z,11.15
2019-05-07T17:12:34.365Z,18.45
2019-05-07T17:15:03.256Z,13.13
2019-05-07T17:17:32.083Z,10.80
2019-05-07T17:20:21.969Z,12.80
2019-05-07T17:22:54.541Z,11.43
2019-05-07T17:25:43.067Z,12.63
2019-05-07T17:28:12.710Z,12.45
2019-05-07T17:31:03.085Z,15.43
2019-05-07T17:33:32.898Z,12.30
2019-05-07T17:36:02.503Z,15.30
2019-05-07T17:42:14.588Z,13.30
2019-05-07T17:45:05.481Z,12.90
2019-05-07T17:48:32.284Z,11.85
2019-05-07T17:51:42.163Z,12.53
2019-05-07T17:54:31.885Z,15.43
2019-05-07T17:57:23.831Z,16.32
2019-05-07T18:03:38.141Z,12.95
2019-05-07T18:06:29.303Z,13.93
2019-05-07T18:09:17.474Z,17.90
2019-05-07T18:12:27.381Z,17.37
2019-05-07T18:15:06.469Z,16.25
2019-05-07T18:18:13.598Z,16.07
2019-05-07T18:21:22.393Z,17.62
2019-05-07T18:30:22.187Z,16.90
2019-05-07T18:33:29.716Z,17.70
2019-05-07T18:36:17.974Z,17.00
2019-05-07T18:39:06.479Z,18.75
2019-05-07T18:41:54.620Z,17.42
2019-05-07T18:44:42.901Z,18.05
2019-05-07T18:47:33.102Z,18.73
2019-05-07T18:50:22.619Z,19.42
2019-05-07T18:52:52.344Z,15.53
2019-05-07T18:55:42.422Z,18.17
2019-05-07T18:58:32.055Z,17.02
2019-05-07T19:04:15.466Z,19.25
2019-05-07T19:07:06.313Z,18.62
2019-05-07T19:09:35.408Z,17.80
2019-05-07T19:15:28.127Z,20.85
2019-05-07T19:18:07.509Z,21.05
2019-05-07T19:20:55.811Z,20.57
2019-05-07T19:23:44.196Z,19.75
2019-05-07T19:26:25.068Z,20.88
2019-05-07T19:29:03.302Z,23.83
2019-05-07T19:35:09.563Z,20.60
2019-05-07T19:37:58.342Z,22.62
2019-05-07T19:40:52.658Z,23.62
2019-05-07T19:46:56.455Z,22.60
2019-05-07T19:53:02.969Z,22.30
2019-05-07T19:56:10.170Z,21.57
2019-05-07T19:58:58.441Z,23.15
2019-05-07T20:05:16.305Z,19.02
2019-05-07T20:08:04.961Z,24.65
2019-05-07T20:14:02.031Z,23.22
2019-05-07T20:16:43.335Z,25.30
2019-05-07T20:19:24.359Z,21.60
2019-05-07T20:22:05.792Z,25.30
2019-05-07T20:24:34.746Z,23.65
2019-05-07T20:27:23.291Z,21.77
2019-05-07T20:29:53.850Z,21.57
2019-05-07T20:32:22.812Z,25.00
2019-05-07T20:34:52.055Z,21.52
2019-05-07T20:37:41.984Z,23.05
2019-05-07T20:40:32.016Z,21.90
2019-05-07T20:43:23.162Z,24.30
2019-05-07T20:46:12.772Z,24.82
2019-05-07T20:49:22.273Z,22.35
2019-05-07T20:55:46.472Z,23.50
2019-05-07T20:58:34.794Z,24.00
2019-05-07T21:01:22.861Z,25.32
2019-05-07T21:04:12.875Z,26.55
2019-05-07T21:07:02.151Z,22.00
2019-05-07T21:09:52.838Z,24.82
2019-05-07T21:12:42.302Z,27.17
2019-05-07T21:15:22.809Z,23.95
2019-05-07T21:18:12.319Z,26.62
2019-05-07T21:21:02.107Z,25.85
2019-05-07T21:23:52.538Z,25.52
2019-05-07T21:26:42.267Z,27.10
2019-05-07T21:29:45.337Z,25.90
2019-05-07T21:32:23.150Z,26.15
2019-05-07T21:35:12.094Z,28.87
2019-05-07T21:38:00.381Z,26.60
2019-05-07T21:40:48.417Z,26.77
2019-05-07T21:43:36.690Z,25.05
2019-05-07T21:46:24.761Z,21.65
2019-05-07T21:49:12.893Z,27.32
2019-05-07T21:52:01.968Z,23.30
2019-05-07T21:55:09.827Z,28.98
2019-05-07T21:58:16.953Z,23.65
2019-05-07T22:01:24.000Z,25.10
2019-05-07T22:07:06.993Z,24.80
2019-05-07T22:12:48.293Z,28.65
2019-05-07T22:15:27.202Z,26.68
2019-05-07T22:18:15.499Z,30.95
2019-05-07T22:21:03.506Z,25.62
2019-05-07T22:23:52.228Z,35.55
2019-05-07T22:26:41.998Z,43.25
2019-05-07T22:29:30.965Z,35.43
2019-05-07T22:35:24.789Z,26.68
2019-05-07T22:38:12.780Z,24.90
2019-05-07T22:44:08.035Z,25.05
2019-05-07T22:49:54.261Z,28.65
2019-05-07T22:52:42.309Z,29.67
2019-05-07T22:55:32.500Z,28.00
2019-05-07T22:58:39.126Z,34.08
2019-05-07T23:01:27.247Z,27.80
2019-05-07T23:04:15.377Z,28.38
2019-05-07T23:07:04.204Z,26.80
2019-05-07T23:13:01.895Z,28.55
2019-05-07T23:15:51.761Z,28.38
2019-05-07T23:18:31.885Z,24.95
2019-05-07T23:21:24.045Z,25.25
2019-05-07T23:24:09.810Z,29.30
2019-05-07T23:26:57.950Z,25.70
2019-05-07T23:29:46.395Z,30.23
2019-05-07T23:32:34.475Z,35.88
2019-05-07T23:35:22.581Z,27.25
2019-05-07T23:38:12.205Z,29.82
2019-05-07T23:41:19.438Z,30.70
2019-05-07T23:44:26.594Z,29.72
2019-05-07T23:47:14.646Z,27.22
2019-05-07T23:53:17.287Z,30.97
2019-05-07T23:56:05.264Z,29.95
2019-05-07T23:58:53.258Z,29.87
